Time;durP1;ratioP1;P1;durP2;ratioP2;P2;SDS_P1;SDS_P2;PMS_P1;PMS_P2;Temp;Humidity;BMP_temperature;BMP_pressure;BME280_temperature;BME280_humidity;BME280_pressure;Samples;Min_cycle;Max_cycle;Signal;HPM_P1;HPM_P2
2023/08/16 00:00:48;;;;;;;3.47;3.13;;;;;;;18.41;75.04;101432.22;5039049;28;20310;-78
2023/08/16 00:03:15;;;;;;;5.32;4.30;;;;;;;18.40;75.38;101419.94;5052587;28;20075;-78
2023/08/16 00:05:43;;;;;;;6.60;4.13;;;;;;;18.39;75.35;101426.16;5054071;28;20615;-78
2023/08/16 00:08:10;;;;;;;7.35;3.65;;;;;;;18.40;75.34;101422.59;5053681;28;20079;-78
2023/08/16 00:10:37;;;;;;;11.95;4.47;;;;;;;18.40;75.50;101423.44;5058113;28;20053;-78
2023/08/16 00:13:06;;;;;;;11.55;5.93;;;;;;;18.37;75.74;101428.00;5054087;28;20128;-79
2023/08/16 00:15:33;;;;;;;6.50;4.45;;;;;;;18.32;75.47;101427.31;5049411;28;20095;-79
2023/08/16 00:18:00;;;;;;;8.77;4.80;;;;;;;18.41;75.68;101440.16;5057563;28;20044;-78
2023/08/16 00:20:27;;;;;;;10.02;5.78;;;;;;;18.41;75.73;101434.88;5060637;28;20410;-79
2023/08/16 00:22:54;;;;;;;12.32;5.43;;;;;;;18.42;75.98;101436.63;5055583;28;20095;-79
2023/08/16 00:25:21;;;;;;;7.15;5.15;;;;;;;18.40;76.04;101435.81;5056709;28;20045;-78
2023/08/16 00:27:49;;;;;;;10.65;5.20;;;;;;;18.42;75.97;101444.56;5058074;28;20049;-79
2023/08/16 00:30:17;;;;;;;7.35;4.95;;;;;;;18.42;76.17;101447.19;5058925;28;20052;-79
2023/08/16 00:32:44;;;;;;;9.32;5.20;;;;;;;18.32;76.34;101429.97;5059617;28;20071;-79
2023/08/16 00:35:11;;;;;;;13.27;6.10;;;;;;;18.43;76.33;101451.56;5056470;28;20510;-79
2023/08/16 00:37:38;;;;;;;20.00;6.82;;;;;;;18.39;76.22;101447.31;5053692;28;20079;-78
2023/08/16 00:40:07;;;;;;;8.45;6.45;;;;;;;18.44;76.37;101450.63;5056080;28;20060;-78
2023/08/16 00:42:34;;;;;;;9.88;6.03;;;;;;;18.44;76.41;101453.25;5059587;28;20040;-79
2023/08/16 00:45:01;;;;;;;8.68;6.38;;;;;;;18.44;76.53;101466.50;5060185;28;20053;-79
2023/08/16 00:47:30;;;;;;;9.85;6.38;;;;;;;18.44;76.60;101463.84;5060580;28;20048;-78
2023/08/16 00:49:56;;;;;;;8.38;6.70;;;;;;;18.46;76.62;101463.78;5057667;28;20040;-79
2023/08/16 00:52:23;;;;;;;10.20;7.07;;;;;;;18.45;76.61;101460.28;5053213;28;20045;-78
2023/08/16 00:54:50;;;;;;;10.23;6.43;;;;;;;18.46;76.60;101469.94;5061918;28;20055;-79
2023/08/16 00:57:18;;;;;;;10.45;7.18;;;;;;;18.46;76.61;101459.34;5066148;28;20063;-79
2023/08/16 00:59:45;;;;;;;9.30;6.75;;;;;;;18.47;76.54;101455.81;5058827;28;20046;-79
2023/08/16 01:02:15;;;;;;;11.90;7.28;;;;;;;18.48;76.66;101456.66;5061653;28;20055;-79
2023/08/16 01:04:43;;;;;;;7.80;5.75;;;;;;;18.48;76.74;101465.47;5057911;28;20052;-79
2023/08/16 01:07:10;;;;;;;13.30;7.45;;;;;;;18.49;76.73;101467.16;5058862;28;20052;-79
2023/08/16 01:09:37;;;;;;;10.15;6.80;;;;;;;18.50;76.98;101475.97;5066918;28;20052;-78
2023/08/16 01:12:11;;;;;;;10.52;6.90;;;;;;;18.51;77.05;101477.72;5067141;28;20037;-78
2023/08/16 01:14:49;;;;;;;10.02;7.30;;;;;;;18.51;76.93;101478.56;5057364;28;22107;-78
2023/08/16 01:17:17;;;;;;;14.85;8.10;;;;;;;18.52;77.14;101479.41;5062297;28;20613;-78
2023/08/16 01:19:46;;;;;;;11.88;7.65;;;;;;;18.51;77.23;101462.69;5066747;28;20052;-78
2023/08/16 01:22:21;;;;;;;9.30;7.40;;;;;;;18.53;77.10;101471.44;5061343;28;20045;-79
2023/08/16 01:25:10;;;;;;;16.92;8.77;;;;;;;18.53;77.21;101468.78;5064602;28;20045;-78
2023/08/16 01:27:38;;;;;;;12.57;7.68;;;;;;;18.55;77.28;101481.94;5062592;28;20514;-78
2023/08/16 01:30:06;;;;;;;12.77;8.45;;;;;;;18.54;77.19;101489.03;5057823;28;20044;-78
2023/08/16 01:32:34;;;;;;;13.65;7.95;;;;;;;18.55;77.25;101485.44;5067765;28;20044;-78
2023/08/16 01:35:02;;;;;;;10.52;7.90;;;;;;;18.56;77.32;101486.31;5059163;28;20052;-79
2023/08/16 01:37:29;;;;;;;11.80;8.57;;;;;;;18.56;77.38;101487.19;5057075;28;20049;-78
2023/08/16 01:40:04;;;;;;;14.23;8.80;;;;;;;18.57;77.46;101493.34;5059172;28;20048;-78
2023/08/16 01:42:33;;;;;;;;;;;;;;;18.58;76.71;101492.41;5067261;28;20045;-78
2023/08/16 01:45:02;;;;;;;10.93;8.65;;;;;;;18.47;77.27;101458.47;5053929;28;19976;-79
2023/08/16 01:47:30;;;;;;;15.00;8.73;;;;;;;18.54;77.31;101457.28;5065596;28;20068;-79
2023/08/16 01:49:58;;;;;;;12.40;8.98;;;;;;;18.59;77.36;101470.31;5062250;28;20051;-86
2023/08/16 01:52:27;;;;;;;12.50;8.38;;;;;;;18.52;77.36;101463.53;5072061;28;20120;-86
2023/08/16 01:54:54;;;;;;;12.80;9.18;;;;;;;18.56;77.52;101471.31;5069174;28;20052;-87
2023/08/16 01:57:21;;;;;;;15.43;8.95;;;;;;;18.60;77.63;101488.75;5062799;28;20055;-87
2023/08/16 01:59:47;;;;;;;16.58;9.63;;;;;;;18.62;77.47;101489.56;5057418;28;20052;-75
2023/08/16 02:02:16;;;;;;;11.88;8.65;;;;;;;18.63;77.39;101491.28;5053918;28;20063;-75
2023/08/16 02:04:43;;;;;;;12.30;8.85;;;;;;;18.63;77.54;101495.72;5056293;28;20067;-75
2023/08/16 02:07:09;;;;;;;11.82;9.05;;;;;;;18.59;77.62;101486.19;5052828;28;20051;-75
2023/08/16 02:09:36;;;;;;;13.65;9.60;;;;;;;18.63;77.66;101499.22;5054015;28;20059;-75
2023/08/16 02:12:03;;;;;;;10.25;8.38;;;;;;;18.64;77.50;101506.25;5048538;28;20041;-75
2023/08/16 02:14:30;;;;;;;15.57;8.93;;;;;;;18.66;77.41;101514.97;5051071;28;20048;-75
2023/08/16 02:16:57;;;;;;;14.27;8.80;;;;;;;18.66;77.63;101508.81;5054660;28;20051;-75
2023/08/16 02:19:25;;;;;;;13.25;9.30;;;;;;;18.67;77.65;101515.88;5053171;28;20045;-75
2023/08/16 02:21:52;;;;;;;13.85;9.27;;;;;;;18.63;77.63;101504.53;5054821;28;20064;-75
2023/08/16 02:24:19;;;;;;;12.98;9.30;;;;;;;18.63;77.69;101496.56;5054167;28;20063;-75
2023/08/16 02:26:46;;;;;;;13.15;10.02;;;;;;;18.68;77.67;101493.75;5053204;28;20045;-75
2023/08/16 02:29:13;;;;;;;16.48;9.63;;;;;;;18.69;77.74;101484.03;5056599;28;20040;-75
2023/08/16 02:31:40;;;;;;;12.82;8.82;;;;;;;18.69;77.57;101482.22;5055384;28;20415;-77
2023/08/16 02:34:07;;;;;;;11.82;8.55;;;;;;;18.69;77.65;101481.38;5051452;28;20071;-75
2023/08/16 02:36:35;;;;;;;13.77;9.40;;;;;;;18.71;77.77;101490.13;5056608;28;20051;-74
2023/08/16 02:39:02;;;;;;;13.52;8.93;;;;;;;18.66;77.56;101485.88;5052565;28;20041;-75
2023/08/16 02:41:30;;;;;;;14.43;9.55;;;;;;;18.64;77.67;101479.78;5057765;28;20157;-75
2023/08/16 02:43:57;;;;;;;14.85;9.98;;;;;;;18.72;77.61;101497.13;5052642;28;20151;-75
2023/08/16 02:46:24;;;;;;;14.88;9.15;;;;;;;18.48;77.44;101456.66;5051720;28;20055;-75
2023/08/16 02:48:51;;;;;;;15.50;9.40;;;;;;;18.73;77.45;101498.88;5053657;28;20119;-76
2023/08/16 02:51:18;;;;;;;18.02;9.48;;;;;;;18.73;77.65;101499.72;5058071;28;20041;-75
2023/08/16 02:53:46;;;;;;;15.52;10.45;;;;;;;18.74;77.51;101508.56;5054884;28;20053;-75
2023/08/16 02:56:13;;;;;;;15.23;9.93;;;;;;;18.75;77.53;101513.78;5051364;28;20045;-75
2023/08/16 02:58:40;;;;;;;20.17;10.02;;;;;;;18.75;77.62;101507.63;5049940;28;20566;-75
2023/08/16 03:01:07;;;;;;;16.45;10.20;;;;;;;18.75;77.46;101503.19;5067804;28;20044;-86
2023/08/16 03:03:34;;;;;;;14.13;9.55;;;;;;;18.75;77.59;101503.19;5056174;28;20380;-86
2023/08/16 03:06:01;;;;;;;11.90;8.95;;;;;;;18.76;77.53;101509.38;5061127;28;20055;-86
2023/08/16 03:08:28;;;;;;;13.20;9.02;;;;;;;18.77;77.47;101516.38;5048102;28;20041;-86
2023/08/16 03:10:56;;;;;;;14.48;9.80;;;;;;;18.77;77.62;101516.38;5056516;28;20051;-77
2023/08/16 03:13:23;;;;;;;18.73;10.07;;;;;;;18.76;77.64;101510.22;5058206;28;20136;-74
2023/08/16 03:15:50;;;;;;;19.58;11.02;;;;;;;18.77;77.71;101506.63;5052389;28;20049;-75
2023/08/16 03:18:17;;;;;;;14.65;9.73;;;;;;;18.73;77.67;101504.16;5054788;28;20041;-74
2023/08/16 03:20:44;;;;;;;12.20;9.52;;;;;;;18.75;77.82;101518.22;5054049;28;20059;-74
2023/08/16 03:23:11;;;;;;;17.27;9.40;;;;;;;18.79;77.67;101519.81;5052149;28;20055;-75
2023/08/16 03:25:38;;;;;;;13.73;9.82;;;;;;;18.79;77.85;101517.19;5053158;28;20059;-74
2023/08/16 03:28:06;;;;;;;16.38;9.95;;;;;;;18.79;77.87;101520.69;5057214;28;20044;-74
2023/08/16 03:30:33;;;;;;;18.80;10.50;;;;;;;18.79;77.96;101522.47;5052710;28;20076;-74
2023/08/16 03:33:00;;;;;;;17.45;10.00;;;;;;;18.79;77.91;101520.69;5052858;28;20142;-74
2023/08/16 03:35:27;;;;;;;16.23;9.90;;;;;;;18.78;77.84;101508.34;5049104;28;20422;-74
2023/08/16 03:37:54;;;;;;;15.73;9.25;;;;;;;18.73;77.84;101512.09;5051457;28;20044;-75
2023/08/16 03:40:21;;;;;;;13.15;8.93;;;;;;;18.80;77.84;101527.69;5050012;28;20045;-75
2023/08/16 03:42:48;;;;;;;12.45;9.73;;;;;;;18.81;77.80;101532.06;5050330;28;20499;-75
2023/08/16 03:45:16;;;;;;;13.02;9.50;;;;;;;18.81;78.03;101531.19;5048483;28;20056;-75
2023/08/16 03:47:44;;;;;;;15.02;9.18;;;;;;;18.81;77.55;101542.66;5049830;28;20139;-75
2023/08/16 03:50:11;;;;;;;15.45;9.75;;;;;;;18.79;77.71;101538.34;5048294;28;20482;-75
2023/08/16 03:52:38;;;;;;;12.73;9.02;;;;;;;18.81;77.84;101547.06;5054230;28;20048;-75
2023/08/16 03:55:05;;;;;;;12.20;8.88;;;;;;;18.82;77.96;101547.03;5050824;28;20041;-75
2023/08/16 03:57:32;;;;;;;13.23;9.70;;;;;;;18.72;77.76;101536.84;5052477;28;20063;-75
2023/08/16 03:59:59;;;;;;;12.18;8.70;;;;;;;18.80;77.99;101543.56;5057241;28;20055;-75
2023/08/16 04:02:27;;;;;;;12.93;9.63;;;;;;;18.83;77.87;101542.59;5052946;28;20812;-74
2023/08/16 04:04:54;;;;;;;11.02;9.13;;;;;;;18.82;77.85;101541.72;5049907;28;20417;-75
2023/08/16 04:07:21;;;;;;;13.98;9.20;;;;;;;18.83;77.96;101547.88;5054918;28;20049;-75
2023/08/16 04:09:48;;;;;;;17.10;9.00;;;;;;;18.63;77.95;101527.47;5057966;28;20423;-84
2023/08/16 04:12:15;;;;;;;10.90;8.55;;;;;;;18.81;78.00;101555.00;5059869;28;20131;-84
2023/08/16 04:14:42;;;;;;;13.98;8.45;;;;;;;18.83;77.84;101559.31;5054049;28;20070;-83
2023/08/16 04:17:09;;;;;;;9.25;8.25;;;;;;;18.83;78.00;101559.31;5060609;28;20051;-85
2023/08/16 04:19:37;;;;;;;13.27;8.88;;;;;;;18.85;78.00;101564.56;5059919;28;20051;-79
2023/08/16 04:22:04;;;;;;;15.30;9.57;;;;;;;18.82;78.03;101562.03;5056979;28;20040;-79
2023/08/16 04:24:31;;;;;;;12.38;8.40;;;;;;;18.83;78.00;101559.31;5050812;28;20151;-79
2023/08/16 04:26:58;;;;;;;11.85;8.20;;;;;;;18.85;77.99;101567.22;5066322;28;20398;-79
2023/08/16 04:29:25;;;;;;;12.98;8.82;;;;;;;18.84;77.89;101576.94;5057920;28;20048;-80
2023/08/16 04:31:52;;;;;;;12.98;9.00;;;;;;;18.83;77.89;101567.25;5049041;28;20751;-80
2023/08/16 04:34:19;;;;;;;14.10;9.45;;;;;;;18.85;78.09;101575.16;5052731;28;20045;-80
2023/08/16 04:36:47;;;;;;;11.88;8.75;;;;;;;18.84;78.16;101571.66;5058451;28;20067;-80
2023/08/16 04:39:14;;;;;;;11.63;8.18;;;;;;;18.74;77.91;101550.91;5057266;28;20107;-80
2023/08/16 04:41:41;;;;;;;9.60;7.00;;;;;;;18.83;78.11;101571.69;5053479;28;20132;-80
2023/08/16 04:44:08;;;;;;;9.48;7.78;;;;;;;18.86;78.11;101584.81;5058460;28;20037;-80
2023/08/16 04:46:35;;;;;;;11.40;7.55;;;;;;;18.75;77.78;101565.84;5059486;28;20063;-80
2023/08/16 04:49:02;;;;;;;11.32;8.65;;;;;;;18.86;77.99;101582.16;5053636;28;20578;-80
2023/08/16 04:51:29;;;;;;;12.13;8.90;;;;;;;18.85;78.15;101585.75;5058072;28;20041;-80
2023/08/16 04:53:57;;;;;;;9.25;7.57;;;;;;;18.87;78.00;101591.84;5059221;28;20054;-80
2023/08/16 04:56:24;;;;;;;10.02;7.28;;;;;;;18.85;78.04;101589.25;5057299;28;20045;-80
2023/08/16 04:58:51;;;;;;;10.27;7.95;;;;;;;18.87;77.91;101583.91;5052882;28;20057;-80
2023/08/16 05:01:20;;;;;;;11.05;7.85;;;;;;;18.86;78.15;101587.47;5057120;28;20132;-79
2023/08/16 05:03:50;;;;;;;9.98;7.45;;;;;;;18.78;78.17;101578.97;5054590;28;20061;-80
2023/08/16 05:06:17;;;;;;;16.33;8.50;;;;;;;18.86;78.04;101590.97;5054136;28;20057;-79
2023/08/16 05:08:44;;;;;;;10.23;7.47;;;;;;;18.87;78.24;101589.19;5054285;28;20055;-80
2023/08/16 05:11:12;;;;;;;11.52;7.40;;;;;;;18.88;78.34;101588.28;5057915;28;20903;-80
2023/08/16 05:13:39;;;;;;;11.85;7.32;;;;;;;18.88;78.19;101594.41;5054796;28;20045;-80
2023/08/16 05:16:06;;;;;;;10.10;7.60;;;;;;;18.89;78.24;101600.56;5056325;28;20120;-80
2023/08/16 05:18:33;;;;;;;9.63;7.32;;;;;;;18.89;78.41;101605.88;5054359;28;20049;-80
2023/08/16 05:21:00;;;;;;;14.80;8.82;;;;;;;18.72;78.62;101573.88;5063150;28;20048;-84
2023/08/16 05:23:27;;;;;;;12.98;9.65;;;;;;;18.92;78.72;101605.75;5060684;28;20134;-85
2023/08/16 05:25:54;;;;;;;15.68;9.18;;;;;;;18.93;78.86;101606.63;5052942;28;20111;-85
2023/08/16 05:28:23;;;;;;;16.35;9.82;;;;;;;18.68;78.91;101559.91;5062460;28;20048;-84
2023/08/16 05:30:50;;;;;;;13.70;9.13;;;;;;;18.93;78.84;101602.19;5053104;28;20045;-75
2023/08/16 05:33:16;;;;;;;12.30;8.43;;;;;;;18.95;78.96;101599.47;5053042;28;20041;-75
2023/08/16 05:35:44;;;;;;;12.95;9.13;;;;;;;18.96;79.12;101602.06;5045428;28;20052;-75
2023/08/16 05:38:10;;;;;;;15.98;9.27;;;;;;;18.97;79.10;101600.28;5052472;28;20045;-75
2023/08/16 05:40:37;;;;;;;13.48;8.77;;;;;;;18.98;79.18;101602.88;5050311;28;20406;-75
2023/08/16 05:43:04;;;;;;;16.02;9.10;;;;;;;18.99;79.16;101599.28;5049902;28;20136;-75
2023/08/16 05:45:33;;;;;;;13.68;8.88;;;;;;;19.01;79.23;101588.63;5052245;28;20049;-75
2023/08/16 05:47:59;;;;;;;13.80;9.48;;;;;;;19.01;79.37;101589.50;5051280;28;20430;-75
2023/08/16 05:50:27;;;;;;;15.18;9.93;;;;;;;19.02;79.60;101580.63;5055954;28;20132;-76
2023/08/16 05:52:54;;;;;;;17.55;9.68;;;;;;;19.06;79.40;101584.84;5052520;28;20388;-76
2023/08/16 05:55:21;;;;;;;17.33;10.25;;;;;;;19.07;79.76;101583.94;5048488;28;20041;-76
2023/08/16 05:57:48;;;;;;;16.48;9.75;;;;;;;19.10;79.83;101586.47;5058527;28;20061;-77
2023/08/16 06:00:16;;;;;;;16.10;9.50;;;;;;;19.12;79.88;101582.88;5059502;28;20052;-78
2023/08/16 06:02:44;;;;;;;14.18;10.07;;;;;;;19.14;79.90;101578.41;5057313;28;20045;-77
2023/08/16 06:05:11;;;;;;;17.58;9.55;;;;;;;19.17;79.96;101586.22;5057038;28;20048;-77
2023/08/16 06:07:38;;;;;;;16.17;9.75;;;;;;;19.19;80.13;101582.59;5058933;28;20049;-76
2023/08/16 06:10:06;;;;;;;13.40;9.77;;;;;;;19.22;80.24;101579.81;5051632;28;20033;-76
2023/08/16 06:12:33;;;;;;;16.00;10.05;;;;;;;19.13;79.89;101566.94;5059128;28;20044;-76
2023/08/16 06:15:00;;;;;;;14.93;9.98;;;;;;;19.27;80.23;101579.63;5057715;28;20068;-83
2023/08/16 06:17:27;;;;;;;16.45;10.07;;;;;;;19.26;80.30;101572.59;5064784;28;20051;-80
2023/08/16 06:19:55;;;;;;;14.98;9.20;;;;;;;19.32;80.47;101577.63;5062662;28;20049;-83
2023/08/16 06:22:22;;;;;;;14.40;10.80;;;;;;;19.17;80.57;101546.50;5058088;28;20049;-90
2023/08/16 06:24:49;;;;;;;17.30;10.60;;;;;;;19.36;80.72;101573.06;5060427;28;20490;-91
2023/08/16 06:27:16;;;;;;;13.50;8.95;;;;;;;19.28;80.48;101553.06;5054883;28;20054;-87
2023/08/16 06:29:43;;;;;;;22.48;11.48;;;;;;;19.45;80.70;101577.97;5054791;28;20055;-80
2023/08/16 06:32:10;;;;;;;19.17;10.68;;;;;;;19.26;80.56;101552.25;5059297;28;20406;-79
2023/08/16 06:34:38;;;;;;;15.13;10.35;;;;;;;19.49;80.74;101582.19;5046308;28;20051;-84
2023/08/16 06:37:06;;;;;;;17.35;10.02;;;;;;;19.55;80.96;101596.06;5055832;28;20047;-77
2023/08/16 06:39:33;;;;;;;16.67;11.40;;;;;;;19.59;80.80;101590.63;5059935;28;20047;-76
2023/08/16 06:42:00;;;;;;;19.58;11.70;;;;;;;19.44;80.59;101555.03;5048935;28;20066;-77
2023/08/16 06:44:27;;;;;;;15.70;11.73;;;;;;;19.65;80.66;101593.00;5054955;28;20113;-77
2023/08/16 06:46:54;;;;;;;18.00;11.50;;;;;;;19.70;80.71;101591.06;5057135;28;20051;-77
2023/08/16 06:49:21;;;;;;;17.20;12.15;;;;;;;19.73;80.69;101598.88;5054906;28;20491;-77
2023/08/16 06:51:48;;;;;;;16.73;11.25;;;;;;;19.74;80.56;101595.28;5054399;28;20106;-77
2023/08/16 06:54:17;;;;;;;19.15;11.63;;;;;;;19.79;80.52;101593.31;5053899;28;20051;-77
2023/08/16 06:56:43;;;;;;;17.83;12.10;;;;;;;19.81;80.32;101598.53;5054169;28;20136;-76
2023/08/16 06:59:10;;;;;;;15.80;11.25;;;;;;;19.86;80.31;101597.38;5055549;28;20503;-77
2023/08/16 07:01:37;;;;;;;21.40;12.40;;;;;;;19.90;80.22;101598.13;5053723;28;20131;-77
2023/08/16 07:04:05;;;;;;;16.38;11.98;;;;;;;19.93;80.05;101592.69;5057694;28;20044;-77
2023/08/16 07:06:32;;;;;;;22.25;12.80;;;;;;;19.96;79.94;101595.22;5057638;28;20041;-77
2023/08/16 07:08:59;;;;;;;15.63;11.40;;;;;;;19.99;79.69;101605.69;5051313;28;20064;-76
2023/08/16 07:11:27;;;;;;;14.88;11.18;;;;;;;20.02;79.60;101602.03;5058734;28;20048;-77
2023/08/16 07:13:54;;;;;;;21.23;11.43;;;;;;;20.06;79.50;101603.59;5059570;28;20041;-79
2023/08/16 07:16:21;;;;;;;16.88;11.95;;;;;;;19.80;79.35;101552.59;5070649;28;20041;-79
2023/08/16 07:18:48;;;;;;;16.17;11.40;;;;;;;20.09;79.30;101604.31;5060799;28;20053;-81
2023/08/16 07:21:15;;;;;;;16.17;11.73;;;;;;;20.14;79.37;101612.06;5056897;28;20045;-77
2023/08/16 07:23:44;;;;;;;19.02;12.18;;;;;;;20.17;79.36;101603.97;5051086;28;20045;-77
2023/08/16 07:26:11;;;;;;;17.70;12.55;;;;;;;20.18;79.19;101605.72;5060089;28;20045;-78
2023/08/16 07:28:39;;;;;;;17.83;12.85;;;;;;;20.23;79.07;101609.00;5052639;28;20126;-80
2023/08/16 07:31:08;;;;;;;17.48;11.60;;;;;;;20.24;78.98;101610.75;5057683;28;20050;-76
2023/08/16 07:33:35;;;;;;;18.02;12.32;;;;;;;20.27;78.90;101605.28;5057070;28;20047;-82
2023/08/16 07:36:03;;;;;;;20.63;12.88;;;;;;;20.20;78.75;101598.53;5054033;28;20041;-77
2023/08/16 07:38:32;;;;;;;21.40;12.63;;;;;;;20.31;78.68;101601.56;5050595;28;20423;-76
2023/08/16 07:41:00;;;;;;;17.75;11.27;;;;;;;20.35;78.66;101610.22;5055073;28;20115;-77
2023/08/16 07:43:26;;;;;;;18.35;12.52;;;;;;;20.37;78.78;101622.50;5056478;28;20041;-76
2023/08/16 07:45:55;;;;;;;17.70;13.30;;;;;;;20.21;78.75;101584.34;5056363;28;20049;-80
2023/08/16 07:48:22;;;;;;;15.15;11.43;;;;;;;20.33;78.74;101609.47;5056919;28;20045;-79
2023/08/16 07:50:50;;;;;;;16.35;10.95;;;;;;;20.43;78.66;101622.25;5052100;28;20503;-76
2023/08/16 07:53:17;;;;;;;15.27;11.52;;;;;;;20.45;78.70;101615.03;5056883;28;20128;-77
2023/08/16 07:55:49;;;;;;;15.70;11.13;;;;;;;20.48;78.76;101619.34;5054846;28;20082;-76
2023/08/16 07:58:17;;;;;;;14.80;11.10;;;;;;;20.51;78.75;101618.34;5039215;28;20053;-76
2023/08/16 08:00:46;;;;;;;13.82;9.85;;;;;;;20.52;78.59;101613.00;5048974;28;20052;-76
2023/08/16 08:03:15;;;;;;;15.32;11.52;;;;;;;20.56;78.61;101617.25;5042434;28;20045;-77
2023/08/16 08:05:42;;;;;;;16.10;9.80;;;;;;;20.59;78.52;101621.53;5052596;28;20041;-78
2023/08/16 08:08:11;;;;;;;12.27;9.32;;;;;;;20.63;78.62;101617.81;5051414;28;20052;-76
2023/08/16 08:10:38;;;;;;;17.25;9.80;;;;;;;20.67;78.43;101627.38;5051756;28;20044;-79
2023/08/16 08:13:05;;;;;;;14.48;9.05;;;;;;;20.72;78.28;101633.31;5049093;28;20050;-78
2023/08/16 08:15:32;;;;;;;14.35;9.70;;;;;;;20.76;78.12;101629.56;5054743;28;20041;-79
2023/08/16 08:17:58;;;;;;;11.73;9.85;;;;;;;20.81;77.83;101630.22;5057098;28;20040;-79
2023/08/16 08:20:27;;;;;;;15.02;8.45;;;;;;;20.87;77.77;101637.03;5055645;28;20048;-77
2023/08/16 08:22:54;;;;;;;13.75;9.25;;;;;;;20.93;77.86;101642.03;5060026;28;20048;-79
2023/08/16 08:25:21;;;;;;;10.45;8.70;;;;;;;20.89;77.85;101619.25;5055523;28;20041;-78
2023/08/16 08:27:48;;;;;;;11.30;8.55;;;;;;;21.03;77.62;101629.16;5054455;28;20049;-78
2023/08/16 08:30:16;;;;;;;10.00;8.00;;;;;;;20.96;77.71;101611.81;5047444;28;20045;-78
2023/08/16 08:32:44;;;;;;;8.73;7.55;;;;;;;21.14;77.30;101626.84;5051676;28;20058;-78
2023/08/16 08:35:11;;;;;;;11.23;8.25;;;;;;;21.20;77.15;101631.00;5053682;28;20049;-78
2023/08/16 08:37:39;;;;;;;8.88;7.97;;;;;;;21.18;76.91;101612.50;5053004;28;20049;-79
2023/08/16 08:40:07;;;;;;;10.45;8.48;;;;;;;21.31;76.68;101626.00;5054683;28;20044;-78
2023/08/16 08:42:35;;;;;;;11.00;7.70;;;;;;;21.35;76.31;101619.63;5057290;28;20076;-79
2023/08/16 08:45:03;;;;;;;11.38;8.30;;;;;;;21.40;76.13;101630.91;5048661;28;20045;-81
2023/08/16 08:47:31;;;;;;;12.82;8.30;;;;;;;21.46;76.05;101629.72;5056635;28;20047;-80
2023/08/16 08:49:59;;;;;;;12.77;8.07;;;;;;;21.48;76.07;101627.88;5041183;28;20053;-83
2023/08/16 08:52:27;;;;;;;10.48;7.65;;;;;;;21.54;75.63;101632.84;5058509;28;20072;-81
2023/08/16 08:54:58;;;;;;;11.30;8.50;;;;;;;21.39;75.89;101596.44;5056170;28;20052;-82
2023/08/16 08:57:28;;;;;;;8.45;7.13;;;;;;;21.60;74.99;101632.56;5056644;28;20065;-82
2023/08/16 08:59:59;;;;;;;7.78;6.80;;;;;;;21.69;74.92;101637.41;5054630;28;20049;-81
2023/08/16 09:02:27;;;;;;;7.65;6.85;;;;;;;21.73;75.03;101633.66;5050895;28;20044;-71
2023/08/16 09:04:56;;;;;;;7.90;6.38;;;;;;;21.79;74.95;101633.31;5046780;28;20056;-73
2023/08/16 09:07:24;;;;;;;6.75;5.53;;;;;;;21.83;74.83;101638.47;5051404;28;20044;-74
2023/08/16 09:09:51;;;;;;;6.47;5.88;;;;;;;21.89;74.57;101644.38;5047796;28;20505;-75
2023/08/16 09:12:19;;;;;;;6.07;5.50;;;;;;;21.93;74.82;101631.75;5047823;28;20059;-72
2023/08/16 09:14:46;;;;;;;10.77;4.90;;;;;;;21.97;74.18;101626.19;5047690;28;20052;-71
2023/08/16 09:17:13;;;;;;;7.75;4.30;;;;;;;22.02;73.82;101633.91;5050426;28;20068;-72
2023/08/16 09:19:46;;;;;;;9.02;3.40;;;;;;;22.04;73.12;101632.03;5054463;28;20098;-73
2023/08/16 09:22:14;;;;;;;5.05;2.63;;;;;;;22.05;72.40;101639.06;5051140;28;20041;-75
2023/08/16 09:24:42;;;;;;;6.47;2.80;;;;;;;22.08;72.15;101654.88;5049996;28;20047;-75
2023/08/16 09:27:09;;;;;;;5.60;2.60;;;;;;;22.08;71.88;101654.88;5055201;28;20044;-74
2023/08/16 09:29:40;;;;;;;2.97;1.85;;;;;;;22.08;71.75;101654.03;5046299;28;20044;-71
2023/08/16 09:32:08;;;;;;;3.50;2.42;;;;;;;22.08;71.68;101657.53;5056064;28;20052;-74
2023/08/16 09:34:35;;;;;;;4.22;2.25;;;;;;;22.08;71.41;101652.22;5054954;28;20411;-74
2023/08/16 09:37:04;;;;;;;5.55;2.05;;;;;;;22.09;70.32;101655.75;5050768;28;20055;-73
2023/08/16 09:39:31;;;;;;;4.38;1.27;;;;;;;22.09;69.71;101659.28;5053661;28;20049;-73
2023/08/16 09:41:58;;;;;;;3.78;1.25;;;;;;;22.07;69.72;101671.78;5048496;28;20048;-75
2023/08/16 09:44:29;;;;;;;3.72;1.50;;;;;;;22.06;69.54;101659.44;5058314;28;20076;-76
2023/08/16 09:46:59;;;;;;;3.78;1.67;;;;;;;22.08;69.42;101670.84;5052384;28;20052;-74
2023/08/16 09:49:26;;;;;;;5.03;2.03;;;;;;;22.08;69.64;101668.19;5056646;28;20045;-73
2023/08/16 09:51:53;;;;;;;5.28;1.75;;;;;;;22.09;69.51;101671.72;5053009;28;20110;-75
2023/08/16 09:54:20;;;;;;;5.43;1.45;;;;;;;22.09;69.18;101667.25;5054659;28;20484;-74
2023/08/16 09:56:48;;;;;;;3.05;2.00;;;;;;;22.10;69.45;101666.31;5051013;28;20087;-73
2023/08/16 09:59:15;;;;;;;5.13;2.33;;;;;;;22.14;68.95;101662.56;5052525;28;20045;-76
2023/08/16 10:01:42;;;;;;;7.68;2.13;;;;;;;22.17;68.84;101665.09;5051742;28;20048;-74
2023/08/16 10:04:11;;;;;;;3.03;1.67;;;;;;;22.19;68.85;101660.53;5053787;28;20051;-75
2023/08/16 10:06:39;;;;;;;6.32;2.03;;;;;;;22.18;68.95;101650.84;5054975;28;20463;-75
2023/08/16 10:09:08;;;;;;;4.82;2.13;;;;;;;22.27;68.69;101659.28;5053750;28;20124;-74
2023/08/16 10:11:37;;;;;;;4.22;1.88;;;;;;;22.29;68.96;101652.06;5046232;28;20499;-74
2023/08/16 10:14:07;;;;;;;5.53;1.73;;;;;;;22.31;68.99;101655.50;5055325;28;20059;-71
2023/08/16 10:16:36;;;;;;;4.72;2.08;;;;;;;22.30;69.05;101661.75;5053412;28;20040;-76
2023/08/16 10:19:03;;;;;;;4.45;1.42;;;;;;;22.35;68.75;101657.91;5053126;28;20071;-73
2023/08/16 10:21:38;;;;;;;2.80;1.27;;;;;;;22.38;67.80;101660.41;5054554;28;20048;-73
2023/08/16 10:24:09;;;;;;;2.17;1.00;;;;;;;22.40;67.37;101660.34;5051887;28;20045;-77
2023/08/16 10:26:38;;;;;;;2.97;1.63;;;;;;;22.41;66.93;101664.72;5053870;28;20051;-77
2023/08/16 10:29:10;;;;;;;2.83;1.30;;;;;;;22.43;66.81;101647.72;5051818;28;20045;-77
2023/08/16 10:31:41;;;;;;;4.45;1.25;;;;;;;22.46;66.82;101641.38;5054025;28;20049;-76
2023/08/16 10:34:13;;;;;;;5.28;1.17;;;;;;;22.49;66.78;101656.31;5057242;28;20393;-78
2023/08/16 10:36:42;;;;;;;3.47;1.60;;;;;;;22.53;67.04;101652.53;5051122;28;20045;-84
2023/08/16 10:39:21;;;;;;;5.30;1.13;;;;;;;22.53;67.00;101644.53;5059452;28;20091;-84
2023/08/16 10:41:50;;;;;;;4.97;1.40;;;;;;;22.57;66.72;101656.72;5058314;28;20119;-84
2023/08/16 10:44:23;;;;;;;2.80;1.20;;;;;;;22.58;65.96;101658.47;5059439;28;20130;-84
2023/08/16 10:46:50;;;;;;;1.65;1.00;;;;;;;22.58;66.41;101662.00;5055479;28;20416;-84
2023/08/16 10:49:18;;;;;;;3.70;1.73;;;;;;;22.58;65.72;101669.97;5059913;28;20133;-83
2023/08/16 10:51:47;;;;;;;5.63;0.93;;;;;;;22.59;65.18;101668.16;5054090;28;20052;-84
2023/08/16 10:54:15;;;;;;;8.38;1.40;;;;;;;22.59;65.07;101669.03;5054625;28;20067;-83
2023/08/16 10:56:47;;;;;;;2.65;1.15;;;;;;;22.60;64.57;101659.25;5054909;28;20068;-84
2023/08/16 10:59:15;;;;;;;2.75;1.08;;;;;;;22.60;64.74;101668.09;5060297;28;20055;-85
2023/08/16 11:01:47;;;;;;;3.85;1.10;;;;;;;22.62;64.09;101662.66;5056237;28;20087;-76
2023/08/16 11:04:14;;;;;;;5.03;0.73;;;;;;;22.62;63.69;101663.53;5053314;28;20143;-76
2023/08/16 11:06:43;;;;;;;3.58;0.82;;;;;;;22.63;64.43;101665.25;5053189;28;20052;-75
2023/08/16 11:09:11;;;;;;;2.15;0.80;;;;;;;22.65;64.20;101671.38;5054769;28;20495;-80
2023/08/16 11:11:44;;;;;;;3.03;1.00;;;;;;;22.66;64.58;101678.41;5052273;28;20442;-76
2023/08/16 11:14:12;;;;;;;4.22;0.88;;;;;;;22.65;64.62;101682.03;5050659;28;20052;-76
2023/08/16 11:16:39;;;;;;;2.20;0.70;;;;;;;22.59;64.16;101671.69;5051165;28;20438;-77
2023/08/16 11:19:08;;;;;;;6.60;1.05;;;;;;;22.66;64.09;101682.88;5046439;28;20492;-77
2023/08/16 11:21:38;;;;;;;3.63;1.02;;;;;;;22.67;64.45;101672.13;5057427;28;20414;-77